createdAt,value
2022-10-21T00:01:00.169Z,12.05
2022-10-21T00:03:37.641Z,12.05
2022-10-21T00:06:06.775Z,12.02
2022-10-21T00:08:34.894Z,12.01
2022-10-21T00:11:06.719Z,12.02
2022-10-21T00:13:38.661Z,12.03
2022-10-21T00:16:15.308Z,12.02
2022-10-21T00:18:45.596Z,12.03
2022-10-21T00:21:20.074Z,12.04
2022-10-21T00:23:49.988Z,12.01
2022-10-21T00:26:19.115Z,12.01
2022-10-21T00:28:47.121Z,12.00
2022-10-21T00:31:16.491Z,12.02
2022-10-21T00:33:44.786Z,12.01
2022-10-21T00:36:15.999Z,12.04
2022-10-21T00:38:46.342Z,12.05
2022-10-21T00:41:17.472Z,12.05
2022-10-21T00:44:07.002Z,12.05
2022-10-21T00:46:40.632Z,12.05
2022-10-21T00:49:34.264Z,12.02
2022-10-21T00:52:06.187Z,12.05
2022-10-21T00:54:34.563Z,12.04
2022-10-21T00:57:02.340Z,12.06
2022-10-21T00:59:36.273Z,12.04
2022-10-21T01:02:04.708Z,12.05
2022-10-21T01:04:32.176Z,12.10
2022-10-21T01:07:01.930Z,12.11
2022-10-21T01:09:30.215Z,12.13
2022-10-21T01:11:58.762Z,12.13
2022-10-21T01:14:54.497Z,12.13
2022-10-21T01:18:15.730Z,12.13
2022-10-21T01:20:58.021Z,12.10
2022-10-21T01:23:53.148Z,12.08
2022-10-21T01:26:54.334Z,12.09
2022-10-21T01:29:51.159Z,12.04
2022-10-21T01:33:06.475Z,12.01
2022-10-21T01:35:46.164Z,11.96
2022-10-21T01:38:38.720Z,11.94
2022-10-21T01:41:26.540Z,11.91
2022-10-21T01:44:28.006Z,11.87
2022-10-21T01:47:16.748Z,11.84
2022-10-21T01:49:56.018Z,11.82
2022-10-21T01:52:23.776Z,11.81
2022-10-21T01:54:59.494Z,11.76
2022-10-21T01:57:32.488Z,11.76
2022-10-21T02:00:01.782Z,11.78
2022-10-21T02:02:37.597Z,11.79
2022-10-21T02:05:21.562Z,11.77
2022-10-21T02:07:50.159Z,11.73
2022-10-21T02:10:19.748Z,11.70
2022-10-21T02:12:51.587Z,11.65
2022-10-21T02:15:22.001Z,11.64
2022-10-21T02:17:57.574Z,11.60
2022-10-21T02:20:28.278Z,11.62
2022-10-21T02:22:56.047Z,11.62
2022-10-21T02:25:33.459Z,11.63
2022-10-21T02:28:01.587Z,11.60
2022-10-21T02:30:40.312Z,11.60
2022-10-21T02:33:16.645Z,11.54
2022-10-21T02:36:17.046Z,11.52
2022-10-21T02:38:53.950Z,11.47
2022-10-21T02:41:24.968Z,11.46
2022-10-21T02:44:02.767Z,11.41
2022-10-21T02:46:44.569Z,11.39
2022-10-21T02:49:12.950Z,11.34
2022-10-21T02:51:42.041Z,11.30
2022-10-21T02:54:09.896Z,11.25
2022-10-21T02:56:37.482Z,11.19
2022-10-21T02:59:05.261Z,11.13
2022-10-21T03:01:32.680Z,11.09
2022-10-21T03:04:00.414Z,11.04
2022-10-21T03:06:27.853Z,11.03
2022-10-21T03:08:55.711Z,10.96
2022-10-21T03:11:23.343Z,10.91
2022-10-21T03:13:51.089Z,10.90
2022-10-21T03:18:51.207Z,10.83
2022-10-21T03:21:18.706Z,10.79
2022-10-21T03:23:46.443Z,10.78
2022-10-21T03:26:13.929Z,10.74
2022-10-21T03:28:41.641Z,10.67
2022-10-21T03:31:09.226Z,10.62
2022-10-21T03:33:37.079Z,10.53
2022-10-21T03:36:05.549Z,10.50
2022-10-21T03:38:33.388Z,10.47
2022-10-21T03:41:00.837Z,10.43
2022-10-21T03:43:28.533Z,10.42
2022-10-21T03:45:55.977Z,10.39
2022-10-21T03:48:23.838Z,10.36
2022-10-21T03:50:51.264Z,10.35
2022-10-21T03:53:38.127Z,10.30
2022-10-21T03:56:07.030Z,10.26
2022-10-21T03:58:35.774Z,10.22
2022-10-21T04:01:03.425Z,10.18
2022-10-21T04:03:31.157Z,10.15
2022-10-21T04:05:58.585Z,10.11
2022-10-21T04:08:26.265Z,10.08
2022-10-21T04:10:56.781Z,10.04
2022-10-21T04:13:43.543Z,9.97
2022-10-21T04:16:18.357Z,9.90
2022-10-21T04:18:47.201Z,9.84
2022-10-21T04:21:14.940Z,9.78
2022-10-21T04:23:42.693Z,9.71
2022-10-21T04:26:11.763Z,9.64
2022-10-21T04:28:39.593Z,9.59
2022-10-21T04:31:07.157Z,9.51
2022-10-21T04:33:35.038Z,9.46
2022-10-21T04:36:02.692Z,9.36
2022-10-21T04:38:30.568Z,9.30
2022-10-21T04:40:59.619Z,9.25
2022-10-21T04:43:27.968Z,9.19
2022-10-21T04:45:55.862Z,9.15
2022-10-21T04:48:23.882Z,9.12
2022-10-21T04:50:52.789Z,9.09
2022-10-21T04:53:21.792Z,9.08
2022-10-21T04:55:55.209Z,9.09
2022-10-21T04:58:23.255Z,9.14
2022-10-21T05:00:51.889Z,9.23
2022-10-21T05:03:20.587Z,9.33
2022-10-21T05:05:52.897Z,9.44
2022-10-21T05:08:21.330Z,9.57
2022-10-21T05:10:49.346Z,9.66
2022-10-21T05:13:17.193Z,9.76
2022-10-21T05:15:44.709Z,9.83
2022-10-21T05:18:12.439Z,9.90
2022-10-21T05:20:39.867Z,9.94
2022-10-21T05:23:07.620Z,9.97
2022-10-21T05:25:35.112Z,10.04
2022-10-21T05:28:02.923Z,10.12
2022-10-21T05:30:30.411Z,10.21
2022-10-21T05:32:58.107Z,10.27
2022-10-21T05:35:25.541Z,10.40
2022-10-21T05:37:53.270Z,10.45
2022-10-21T05:40:20.759Z,10.52
2022-10-21T05:42:48.530Z,10.55
2022-10-21T05:45:16.116Z,10.57
2022-10-21T05:47:44.453Z,10.62
2022-10-21T05:50:13.196Z,10.67
2022-10-21T05:52:41.550Z,10.69
2022-10-21T05:55:10.262Z,10.71
2022-10-21T05:57:39.163Z,10.71
2022-10-21T06:00:08.190Z,10.71
2022-10-21T06:02:36.827Z,10.74
2022-10-21T06:05:04.937Z,10.75
2022-10-21T06:07:32.871Z,10.78
2022-10-21T06:10:00.313Z,10.86
2022-10-21T06:12:28.176Z,10.92
2022-10-21T06:14:55.823Z,10.97
2022-10-21T06:17:23.611Z,11.03
2022-10-21T06:19:51.263Z,11.07
2022-10-21T06:22:18.933Z,11.11
2022-10-21T06:24:47.284Z,11.16
2022-10-21T06:27:15.161Z,11.21
2022-10-21T06:29:42.653Z,11.23
2022-10-21T06:32:11.683Z,11.29
2022-10-21T06:34:39.724Z,11.30
2022-10-21T06:37:09.078Z,11.38
2022-10-21T06:39:36.581Z,11.47
2022-10-21T06:42:04.320Z,11.52
2022-10-21T06:44:40.474Z,11.57
2022-10-21T06:47:09.168Z,11.64
2022-10-21T06:49:36.660Z,11.78
2022-10-21T06:52:04.882Z,11.89
2022-10-21T06:54:32.552Z,11.92
2022-10-21T06:57:00.583Z,11.98
2022-10-21T06:59:28.455Z,12.06
2022-10-21T07:02:00.075Z,12.09
2022-10-21T07:04:29.330Z,12.11
2022-10-21T07:06:57.248Z,12.18
2022-10-21T07:09:24.768Z,12.26
2022-10-21T07:11:52.600Z,12.34
2022-10-21T07:14:20.164Z,12.40
2022-10-21T07:16:48.352Z,12.51
2022-10-21T07:19:15.834Z,12.62
2022-10-21T07:21:44.232Z,12.71
2022-10-21T07:24:11.752Z,12.78
2022-10-21T07:26:40.293Z,12.94
2022-10-21T07:29:07.869Z,13.02
2022-10-21T07:31:38.148Z,13.11
2022-10-21T07:34:08.425Z,13.22
2022-10-21T07:36:44.403Z,13.37
2022-10-21T07:39:16.058Z,13.50
2022-10-21T07:41:51.808Z,13.62
2022-10-21T07:44:21.880Z,13.74
2022-10-21T07:46:51.482Z,13.74
2022-10-21T07:49:20.774Z,13.77
2022-10-21T07:51:50.445Z,13.82
2022-10-21T07:54:18.801Z,13.87
2022-10-21T07:56:50.827Z,13.86
2022-10-21T07:59:20.470Z,13.84
2022-10-21T08:04:20.933Z,13.88
2022-10-21T08:06:49.654Z,13.90
2022-10-21T08:09:17.838Z,13.90
2022-10-21T08:11:45.702Z,13.93
2022-10-21T08:14:15.798Z,14.00
2022-10-21T08:16:43.623Z,14.10
2022-10-21T08:19:27.316Z,14.26
2022-10-21T08:21:56.135Z,14.42
2022-10-21T08:24:23.986Z,14.59
2022-10-21T08:26:52.143Z,14.78
2022-10-21T08:29:19.803Z,14.92
2022-10-21T08:31:47.591Z,15.03
2022-10-21T08:34:15.111Z,15.13
2022-10-21T08:36:42.981Z,15.17
2022-10-21T08:39:10.569Z,15.27
2022-10-21T08:42:05.044Z,15.42
2022-10-21T08:45:07.404Z,15.46
2022-10-21T08:47:47.157Z,15.47
2022-10-21T08:50:42.885Z,15.53
2022-10-21T08:53:33.448Z,15.60
2022-10-21T08:56:17.157Z,15.61
2022-10-21T08:58:51.102Z,15.65
2022-10-21T09:01:32.192Z,15.68
2022-10-21T09:04:40.810Z,15.72
2022-10-21T09:07:39.676Z,15.76
2022-10-21T09:10:41.662Z,15.85
2022-10-21T09:13:49.474Z,15.86
2022-10-21T09:16:46.186Z,15.91
2022-10-21T09:19:36.131Z,15.96
2022-10-21T09:22:39.422Z,16.02
2022-10-21T09:25:27.053Z,16.10
2022-10-21T09:27:57.065Z,16.15
2022-10-21T09:30:25.860Z,16.23
2022-10-21T09:33:00.732Z,16.32
2022-10-21T09:35:54.742Z,16.38
2022-10-21T09:38:40.319Z,16.43
2022-10-21T09:41:19.302Z,16.55
2022-10-21T09:43:48.975Z,16.63
2022-10-21T09:46:17.053Z,16.62
2022-10-21T09:49:25.905Z,16.63
2022-10-21T09:51:42.691Z,16.70
2022-10-21T09:54:19.833Z,16.76
2022-10-21T09:57:00.884Z,16.86
2022-10-21T09:59:33.221Z,16.94
2022-10-21T10:02:15.440Z,16.99
2022-10-21T10:04:43.247Z,17.02
2022-10-21T10:07:27.719Z,17.09
2022-10-21T10:09:55.792Z,17.15
2022-10-21T10:12:29.278Z,17.20
2022-10-21T10:14:57.312Z,17.17
2022-10-21T10:17:29.023Z,17.21
2022-10-21T10:20:05.615Z,17.28
2022-10-21T10:22:43.610Z,17.37
2022-10-21T10:25:24.234Z,17.43
2022-10-21T10:28:10.113Z,17.47
2022-10-21T10:30:50.522Z,17.51
2022-10-21T10:33:28.342Z,17.56
2022-10-21T10:36:09.168Z,17.65
2022-10-21T10:38:55.245Z,17.71
2022-10-21T10:41:34.501Z,17.77
2022-10-21T10:44:09.142Z,17.85
2022-10-21T10:46:38.884Z,17.93
2022-10-21T10:49:15.814Z,18.02
2022-10-21T10:51:47.764Z,18.11
2022-10-21T10:54:28.630Z,18.25
2022-10-21T10:57:10.628Z,18.34
2022-10-21T11:00:09.366Z,18.43
2022-10-21T11:02:56.004Z,18.55
2022-10-21T11:06:05.844Z,18.73
2022-10-21T11:08:45.481Z,18.88
2022-10-21T11:11:45.623Z,19.04
2022-10-21T11:14:21.806Z,19.17
2022-10-21T11:17:01.353Z,19.29
2022-10-21T11:19:58.303Z,19.39
2022-10-21T11:23:02.919Z,19.51
2022-10-21T11:25:46.942Z,19.66
2022-10-21T11:29:05.637Z,19.79
2022-10-21T11:32:12.330Z,19.92
2022-10-21T11:35:16.222Z,20.09
2022-10-21T11:38:37.439Z,20.27
2022-10-21T11:44:29.251Z,20.60
2022-10-21T11:47:17.335Z,20.72
2022-10-21T11:53:30.482Z,20.92
2022-10-21T11:56:09.398Z,21.03
2022-10-21T11:58:52.346Z,21.14
2022-10-21T12:02:01.288Z,21.21
2022-10-21T12:04:50.029Z,21.29
2022-10-21T12:07:58.449Z,21.37
2022-10-21T12:10:43.951Z,21.48
2022-10-21T12:13:36.887Z,21.49
2022-10-21T12:16:19.042Z,21.46
2022-10-21T12:18:58.007Z,21.46
2022-10-21T12:21:30.910Z,21.48
2022-10-21T12:24:30.707Z,21.51
2022-10-21T12:27:18.664Z,21.54
2022-10-21T12:30:06.801Z,21.62
2022-10-21T12:32:52.306Z,21.76
2022-10-21T12:35:40.446Z,21.85
2022-10-21T12:38:24.346Z,21.94
2022-10-21T12:41:23.784Z,22.12
2022-10-21T12:44:05.825Z,22.28
2022-10-21T12:46:49.083Z,22.40
2022-10-21T12:49:32.666Z,22.48
2022-10-21T12:52:02.830Z,22.58
2022-10-21T12:54:51.332Z,22.66
2022-10-21T12:57:45.232Z,22.76
2022-10-21T13:00:28.070Z,22.84
2022-10-21T13:03:22.310Z,22.90
2022-10-21T13:05:53.051Z,23.00
2022-10-21T13:08:29.691Z,23.06
2022-10-21T13:11:36.758Z,23.22
2022-10-21T13:14:54.771Z,23.16
2022-10-21T13:17:22.450Z,23.14
2022-10-21T13:19:55.028Z,23.19
2022-10-21T13:22:36.038Z,23.32
2022-10-21T13:25:35.330Z,23.35
2022-10-21T13:28:19.906Z,23.35
2022-10-21T13:30:50.334Z,23.34
2022-10-21T13:33:22.120Z,23.31
2022-10-21T13:36:08.264Z,23.21
2022-10-21T13:38:46.713Z,23.11
2022-10-21T13:41:28.338Z,23.02
2022-10-21T13:44:05.852Z,22.95
2022-10-21T13:46:42.573Z,22.89
2022-10-21T13:49:30.695Z,22.80
2022-10-21T13:51:58.433Z,22.76
2022-10-21T13:54:26.355Z,22.73
2022-10-21T13:56:53.793Z,22.74
2022-10-21T13:59:34.687Z,22.76
2022-10-21T14:02:04.220Z,22.71
2022-10-21T14:04:34.312Z,22.68
2022-10-21T14:07:09.193Z,22.68
2022-10-21T14:09:50.909Z,22.57
2022-10-21T14:12:25.215Z,22.54
2022-10-21T14:14:57.911Z,22.50
2022-10-21T14:17:27.505Z,22.37
2022-10-21T14:20:27.295Z,22.31
2022-10-21T14:22:55.942Z,22.23
2022-10-21T14:25:23.836Z,22.10
2022-10-21T14:27:51.552Z,21.99
2022-10-21T14:30:26.403Z,21.89
2022-10-21T14:32:56.920Z,21.77
2022-10-21T14:35:29.696Z,21.64
2022-10-21T14:38:03.262Z,21.50
2022-10-21T14:40:38.107Z,21.41
2022-10-21T14:43:34.594Z,21.22
2022-10-21T14:46:06.391Z,21.09
2022-10-21T14:48:59.809Z,20.99
2022-10-21T14:51:27.931Z,20.85
2022-10-21T14:54:04.186Z,20.73
2022-10-21T14:56:40.662Z,20.59
2022-10-21T14:59:34.346Z,20.47
2022-10-21T15:02:03.198Z,20.34
2022-10-21T15:04:50.967Z,20.21
2022-10-21T15:07:38.809Z,20.07
2022-10-21T15:10:07.276Z,19.94
2022-10-21T15:12:51.433Z,19.83
2022-10-21T15:15:40.404Z,19.70
2022-10-21T15:18:15.183Z,19.58
2022-10-21T15:21:01.900Z,19.43
2022-10-21T15:23:43.178Z,19.34
2022-10-21T15:26:32.178Z,19.26
2022-10-21T15:28:59.945Z,19.16
2022-10-21T15:31:29.245Z,19.08
2022-10-21T15:33:58.682Z,19.01
2022-10-21T15:36:26.299Z,18.98
2022-10-21T15:38:55.383Z,18.93
2022-10-21T15:41:25.939Z,18.86
2022-10-21T15:43:56.591Z,18.81
2022-10-21T15:46:26.703Z,18.76
2022-10-21T15:48:55.375Z,18.73
2022-10-21T15:51:22.998Z,18.68
2022-10-21T15:53:50.698Z,18.63
2022-10-21T15:56:20.048Z,18.59
2022-10-21T15:58:48.172Z,18.54
2022-10-21T16:01:17.523Z,18.46
2022-10-21T16:03:45.816Z,18.41
2022-10-21T16:06:19.878Z,18.37
2022-10-21T16:08:49.437Z,18.31
2022-10-21T16:11:25.646Z,18.28
2022-10-21T16:14:05.661Z,18.21
2022-10-21T16:16:33.313Z,18.21
2022-10-21T16:19:01.062Z,18.22
2022-10-21T16:21:28.609Z,18.19
2022-10-21T16:23:57.018Z,18.19
2022-10-21T16:26:29.382Z,18.17
2022-10-21T16:28:58.064Z,18.18
2022-10-21T16:31:27.601Z,18.18
2022-10-21T16:33:55.357Z,18.18
2022-10-21T16:36:27.648Z,18.17
2022-10-21T16:38:55.629Z,18.17
2022-10-21T16:41:28.200Z,18.14
2022-10-21T16:43:56.681Z,18.14
2022-10-21T16:46:35.681Z,18.10
2022-10-21T16:49:13.925Z,18.07
2022-10-21T16:51:46.253Z,18.05
2022-10-21T16:54:15.432Z,18.02
2022-10-21T16:56:43.482Z,18.00
2022-10-21T16:59:11.998Z,17.99
2022-10-21T17:01:39.784Z,17.94
2022-10-21T17:04:07.595Z,17.90
2022-10-21T17:06:35.057Z,17.88
2022-10-21T17:09:02.850Z,17.85
2022-10-21T17:11:38.174Z,17.83
2022-10-21T17:14:11.959Z,17.80
2022-10-21T17:16:40.220Z,17.81
2022-10-21T17:19:08.243Z,17.79
2022-10-21T17:21:35.799Z,17.80
2022-10-21T17:24:04.936Z,17.79
2022-10-21T17:26:36.742Z,17.79
2022-10-21T17:29:04.464Z,17.77
2022-10-21T17:31:32.289Z,17.76
2022-10-21T17:34:07.536Z,17.72
2022-10-21T17:36:35.966Z,17.73
2022-10-21T17:39:06.841Z,17.72
2022-10-21T17:41:34.445Z,17.71
2022-10-21T17:44:03.337Z,17.70
2022-10-21T17:46:30.813Z,17.69
2022-10-21T17:48:58.707Z,17.68
2022-10-21T17:51:26.480Z,17.67
2022-10-21T17:53:55.328Z,17.67
2022-10-21T17:56:26.072Z,17.67
2022-10-21T17:58:56.286Z,17.65
2022-10-21T18:01:25.451Z,17.62
2022-10-21T18:03:54.256Z,17.62
2022-10-21T18:06:21.804Z,17.63
2022-10-21T18:08:49.607Z,17.70
2022-10-21T18:11:21.848Z,17.75
2022-10-21T18:13:53.518Z,17.78
2022-10-21T18:16:24.140Z,17.82
2022-10-21T18:18:57.392Z,17.85
2022-10-21T18:21:27.764Z,17.86
2022-10-21T18:23:55.944Z,17.86
2022-10-21T18:26:27.768Z,17.84
2022-10-21T18:28:59.630Z,17.82
2022-10-21T18:31:31.100Z,17.78
2022-10-21T18:34:01.318Z,17.75
2022-10-21T18:36:29.323Z,17.73
2022-10-21T18:38:59.079Z,17.70
2022-10-21T18:41:27.462Z,17.67
2022-10-21T18:44:02.162Z,17.65
2022-10-21T18:46:31.100Z,17.62
2022-10-21T18:48:59.434Z,17.56
2022-10-21T18:51:26.946Z,17.48
2022-10-21T18:53:54.772Z,17.37
2022-10-21T18:56:27.354Z,17.17
2022-10-21T18:58:58.833Z,17.02
2022-10-21T19:01:26.943Z,16.82
2022-10-21T19:03:56.151Z,16.62
2022-10-21T19:06:48.710Z,16.51
2022-10-21T19:09:23.315Z,16.39
2022-10-21T19:11:50.884Z,16.33
2022-10-21T19:14:19.667Z,16.29
2022-10-21T19:16:48.838Z,16.23
2022-10-21T19:19:17.456Z,16.21
2022-10-21T19:21:45.078Z,16.11
2022-10-21T19:24:13.202Z,16.00
2022-10-21T19:26:45.073Z,15.96
2022-10-21T19:29:16.689Z,15.91
2022-10-21T19:34:27.072Z,15.88
2022-10-21T19:36:54.734Z,15.89
2022-10-21T19:39:22.523Z,15.91
2022-10-21T19:41:50.145Z,15.93
2022-10-21T19:44:36.589Z,15.95
2022-10-21T19:47:04.139Z,15.95
2022-10-21T19:49:33.108Z,15.92
2022-10-21T19:52:01.097Z,15.89
2022-10-21T19:54:29.101Z,15.87
2022-10-21T19:56:56.871Z,15.83
2022-10-21T19:59:24.700Z,15.81
2022-10-21T20:01:52.233Z,15.80
2022-10-21T20:04:20.069Z,15.80
2022-10-21T20:06:47.871Z,15.80
2022-10-21T20:09:15.908Z,15.76
2022-10-21T20:11:43.754Z,15.75
2022-10-21T20:14:13.488Z,15.71
2022-10-21T20:16:44.792Z,15.71
2022-10-21T20:19:12.804Z,15.68
2022-10-21T20:21:40.821Z,15.67
2022-10-21T20:24:13.064Z,15.66
2022-10-21T20:26:40.782Z,15.67
2022-10-21T20:29:09.065Z,15.67
2022-10-21T20:31:37.295Z,15.66
2022-10-21T20:34:05.675Z,15.66
2022-10-21T20:36:33.843Z,15.66
2022-10-21T20:39:03.196Z,15.62
2022-10-21T20:41:36.028Z,15.64
2022-10-21T20:44:06.890Z,15.68
2022-10-21T20:46:36.516Z,15.74
2022-10-21T20:49:06.594Z,15.75
2022-10-21T20:51:36.841Z,15.77
2022-10-21T20:54:32.586Z,15.77
2022-10-21T20:57:00.171Z,15.75
2022-10-21T20:59:30.363Z,15.77
2022-10-21T21:01:57.974Z,15.80
2022-10-21T21:04:25.789Z,15.84
2022-10-21T21:06:53.519Z,15.90
2022-10-21T21:09:38.102Z,15.93
2022-10-21T21:12:10.821Z,15.96
2022-10-21T21:14:39.226Z,15.99
2022-10-21T21:17:06.789Z,16.04
2022-10-21T21:19:34.569Z,16.07
2022-10-21T21:22:03.790Z,16.05
2022-10-21T21:24:32.394Z,16.05
2022-10-21T21:26:59.980Z,16.07
2022-10-21T21:29:27.802Z,16.10
2022-10-21T21:31:55.266Z,16.10
2022-10-21T21:34:23.083Z,16.07
2022-10-21T21:36:50.692Z,16.06
2022-10-21T21:39:18.500Z,16.07
2022-10-21T21:41:46.460Z,16.08
2022-10-21T21:44:14.571Z,16.10
2022-10-21T21:46:42.202Z,16.07
2022-10-21T21:49:10.313Z,16.06
2022-10-21T21:51:38.069Z,16.03
2022-10-21T21:54:07.919Z,16.04
2022-10-21T21:56:35.892Z,16.04
2022-10-21T21:59:04.594Z,16.03
2022-10-21T22:01:32.484Z,16.02
2022-10-21T22:04:00.784Z,15.99
2022-10-21T22:06:49.430Z,15.95
2022-10-21T22:09:23.386Z,15.94
2022-10-21T22:13:07.218Z,15.89
2022-10-21T22:15:47.440Z,15.86
2022-10-21T22:18:15.496Z,15.91
2022-10-21T22:20:43.311Z,15.98
2022-10-21T22:23:19.855Z,16.05
2022-10-21T22:25:58.803Z,16.05
2022-10-21T22:28:46.271Z,16.05
2022-10-21T22:31:29.180Z,16.07
2022-10-21T22:34:19.139Z,16.11
2022-10-21T22:36:56.951Z,16.12
2022-10-21T22:39:33.667Z,16.13
2022-10-21T22:46:41.770Z,16.15
2022-10-21T22:49:23.381Z,16.16
2022-10-21T22:51:59.422Z,16.18
2022-10-21T22:54:49.384Z,16.19
2022-10-21T22:57:20.813Z,16.18
2022-10-21T23:03:37.094Z,16.13
2022-10-21T23:06:32.385Z,16.05
2022-10-21T23:09:27.561Z,16.00
2022-10-21T23:12:31.418Z,15.97
2022-10-21T23:15:29.157Z,15.94
2022-10-21T23:18:17.819Z,15.94
2022-10-21T23:21:06.544Z,15.95
2022-10-21T23:23:52.504Z,15.95
2022-10-21T23:26:40.519Z,15.92
2022-10-21T23:29:35.424Z,15.87
2022-10-21T23:32:35.853Z,15.83
2022-10-21T23:35:22.464Z,15.81
2022-10-21T23:38:03.603Z,15.81
2022-10-21T23:40:49.706Z,15.82
2022-10-21T23:43:29.069Z,15.88
2022-10-21T23:46:04.306Z,15.93
2022-10-21T23:48:36.842Z,16.01
2022-10-21T23:51:12.610Z,16.08
2022-10-21T23:53:46.249Z,16.16
2022-10-21T23:56:47.310Z,16.19
2022-10-21T23:59:19.884Z,16.19
